createdAt,value
2019-02-26T00:01:14.393Z,28.43
2019-02-26T00:03:43.470Z,26.60
2019-02-26T00:06:12.925Z,27.93
2019-02-26T00:08:42.289Z,26.50
2019-02-26T00:11:11.659Z,27.17
2019-02-26T00:13:41.050Z,27.30
2019-02-26T00:16:11.008Z,26.70
2019-02-26T00:18:42.663Z,26.80
2019-02-26T00:21:12.114Z,25.50
2019-02-26T00:23:42.030Z,24.50
2019-02-26T00:26:17.763Z,24.73
2019-02-26T00:28:46.281Z,25.47
2019-02-26T00:31:23.401Z,25.37
2019-02-26T00:33:52.426Z,26.93
2019-02-26T00:36:21.797Z,27.53
2019-02-26T00:39:05.497Z,25.43
2019-02-26T00:41:36.206Z,22.70
2019-02-26T00:44:06.578Z,22.37
2019-02-26T00:46:36.980Z,21.83
2019-02-26T00:49:07.630Z,23.27
2019-02-26T00:51:43.321Z,22.77
2019-02-26T00:54:14.359Z,21.87
2019-02-26T00:56:43.702Z,22.30
2019-02-26T00:59:13.171Z,24.63
2019-02-26T01:01:46.027Z,22.77
2019-02-26T01:04:13.587Z,23.73
2019-02-26T01:06:42.987Z,23.20
2019-02-26T01:09:14.012Z,21.87
2019-02-26T01:11:45.081Z,23.97
2019-02-26T01:14:15.832Z,24.60
2019-02-26T01:16:46.013Z,25.00
2019-02-26T01:19:17.521Z,25.07
2019-02-26T01:21:47.166Z,24.17
2019-02-26T01:24:16.532Z,22.50
2019-02-26T01:26:45.939Z,20.77
2019-02-26T01:29:18.973Z,22.43
2019-02-26T01:31:48.562Z,22.50
2019-02-26T01:34:20.806Z,28.07
2019-02-26T01:36:51.230Z,25.33
2019-02-26T01:39:22.829Z,25.23
2019-02-26T01:41:53.995Z,25.40
2019-02-26T01:44:22.699Z,26.00
2019-02-26T01:46:53.362Z,26.27
2019-02-26T01:49:25.868Z,31.27
2019-02-26T01:51:56.183Z,29.37
2019-02-26T01:54:25.668Z,31.37
2019-02-26T01:56:56.057Z,32.17
2019-02-26T01:59:25.465Z,29.87
2019-02-26T02:01:56.082Z,29.60
2019-02-26T02:04:25.498Z,28.67
2019-02-26T02:06:56.723Z,28.00
2019-02-26T02:09:26.012Z,28.73
2019-02-26T02:11:57.352Z,27.60
2019-02-26T02:14:27.431Z,24.90
2019-02-26T02:16:56.791Z,24.03
2019-02-26T02:19:27.605Z,25.73
2019-02-26T02:21:58.289Z,27.27
2019-02-26T02:24:29.826Z,31.07
2019-02-26T02:27:00.334Z,31.03
2019-02-26T02:29:29.829Z,32.33
2019-02-26T02:32:02.230Z,31.57
2019-02-26T02:34:33.110Z,30.30
2019-02-26T02:37:12.101Z,30.17
2019-02-26T02:39:41.475Z,30.03
2019-02-26T02:42:14.135Z,32.07
2019-02-26T02:44:44.967Z,33.83
2019-02-26T02:47:17.629Z,32.23
2019-02-26T02:49:48.055Z,29.67
2019-02-26T02:52:17.435Z,26.13
2019-02-26T02:54:55.079Z,22.13
2019-02-26T02:57:26.785Z,22.77
2019-02-26T03:00:02.961Z,25.43
2019-02-26T03:02:37.483Z,25.20
2019-02-26T03:05:05.947Z,26.20
2019-02-26T03:07:36.358Z,25.50
2019-02-26T03:10:12.075Z,24.97
2019-02-26T03:12:44.072Z,24.97
2019-02-26T03:15:16.237Z,25.27
2019-02-26T03:17:45.772Z,24.67
2019-02-26T03:20:31.377Z,23.20
2019-02-26T03:23:04.030Z,26.47
2019-02-26T03:25:32.649Z,28.13
2019-02-26T03:28:02.049Z,26.33
2019-02-26T03:30:40.544Z,25.70
2019-02-26T03:33:06.380Z,27.47
2019-02-26T03:35:35.891Z,27.40
2019-02-26T03:38:05.374Z,31.63
2019-02-26T03:40:36.136Z,30.20
2019-02-26T03:43:07.730Z,31.33
2019-02-26T03:45:36.857Z,34.20
2019-02-26T03:48:06.247Z,33.87
2019-02-26T03:50:35.613Z,32.13
2019-02-26T03:53:08.987Z,30.53
2019-02-26T03:55:38.814Z,31.20
2019-02-26T03:58:07.385Z,33.47
2019-02-26T04:00:41.699Z,34.23
2019-02-26T04:03:11.865Z,36.17
2019-02-26T04:05:40.857Z,34.17
2019-02-26T04:08:10.354Z,35.43
2019-02-26T04:10:39.751Z,35.53
2019-02-26T04:13:17.354Z,32.67
2019-02-26T04:15:46.791Z,34.60
2019-02-26T04:18:21.958Z,33.63
2019-02-26T04:20:51.452Z,33.83
2019-02-26T04:23:22.038Z,36.47
2019-02-26T04:25:59.495Z,34.33
2019-02-26T04:28:50.308Z,35.80
2019-02-26T04:31:47.088Z,34.97
2019-02-26T04:34:37.240Z,36.03
2019-02-26T04:37:27.359Z,34.47
2019-02-26T04:40:14.095Z,30.83
2019-02-26T04:42:50.431Z,30.47
2019-02-26T04:45:42.315Z,30.33
2019-02-26T04:48:17.550Z,28.57
2019-02-26T04:50:45.897Z,28.03
2019-02-26T04:53:15.455Z,27.97
2019-02-26T04:55:44.990Z,28.37
2019-02-26T04:58:15.540Z,28.43
2019-02-26T05:00:45.526Z,26.50
2019-02-26T05:03:17.172Z,28.50
2019-02-26T05:05:46.005Z,30.77
2019-02-26T05:08:17.746Z,31.33
2019-02-26T05:10:49.815Z,34.10
2019-02-26T05:13:18.471Z,31.93
2019-02-26T05:15:47.850Z,31.13
2019-02-26T05:18:20.352Z,29.63
2019-02-26T05:20:52.362Z,29.00
2019-02-26T05:23:23.265Z,30.77
2019-02-26T05:25:52.804Z,29.70
2019-02-26T05:28:22.231Z,30.03
2019-02-26T05:30:53.487Z,30.17
2019-02-26T05:33:24.770Z,29.27
2019-02-26T05:35:53.991Z,29.20
2019-02-26T05:38:24.018Z,29.07
2019-02-26T05:40:55.811Z,29.57
2019-02-26T05:43:26.312Z,29.83
2019-02-26T05:45:59.937Z,30.63
2019-02-26T05:48:28.663Z,30.27
2019-02-26T05:50:59.967Z,28.07
2019-02-26T05:53:29.146Z,29.27
2019-02-26T05:55:58.518Z,29.53
2019-02-26T05:58:27.922Z,33.73
2019-02-26T06:00:57.277Z,30.57
2019-02-26T06:03:26.656Z,31.50
2019-02-26T06:05:58.257Z,29.23
2019-02-26T06:08:32.280Z,28.20
2019-02-26T06:10:58.297Z,28.23
2019-02-26T06:13:29.103Z,27.97
2019-02-26T06:16:02.263Z,26.23
2019-02-26T06:18:31.520Z,26.83
2019-02-26T06:21:01.382Z,26.07
2019-02-26T06:23:34.474Z,25.50
2019-02-26T06:26:10.781Z,23.53
2019-02-26T06:28:40.937Z,22.60
2019-02-26T06:31:12.167Z,25.10
2019-02-26T06:33:43.114Z,28.27
2019-02-26T06:36:12.252Z,28.77
2019-02-26T06:38:41.624Z,29.27
2019-02-26T06:41:14.155Z,29.57
2019-02-26T06:43:47.576Z,29.13
2019-02-26T06:46:21.157Z,29.60
2019-02-26T06:48:50.573Z,34.50
2019-02-26T06:51:23.323Z,36.77
2019-02-26T06:53:54.090Z,33.80
2019-02-26T06:56:23.191Z,46.00
2019-02-26T06:58:52.617Z,34.47
2019-02-26T07:01:21.985Z,34.63
2019-02-26T07:03:51.360Z,33.73
2019-02-26T07:06:25.094Z,37.93
2019-02-26T07:08:53.471Z,37.20
2019-02-26T07:11:25.555Z,36.60
2019-02-26T07:13:58.852Z,34.63
2019-02-26T07:16:28.745Z,32.47
2019-02-26T07:18:59.042Z,29.93
2019-02-26T07:21:33.397Z,28.00
2019-02-26T07:24:03.448Z,27.83
2019-02-26T07:26:33.060Z,24.90
2019-02-26T07:29:03.467Z,24.77
2019-02-26T07:31:39.684Z,25.17
2019-02-26T07:34:11.076Z,22.10
2019-02-26T07:36:41.082Z,23.67
2019-02-26T07:39:13.042Z,24.80
2019-02-26T07:41:44.511Z,23.33
2019-02-26T07:44:15.673Z,23.63
2019-02-26T07:46:53.802Z,22.60
2019-02-26T07:49:23.162Z,25.10
2019-02-26T07:51:52.537Z,26.60
2019-02-26T07:54:21.944Z,26.47
2019-02-26T07:56:52.492Z,28.20
2019-02-26T07:59:27.649Z,27.17
2019-02-26T08:01:53.441Z,27.60
2019-02-26T08:04:22.840Z,28.27
2019-02-26T08:06:54.141Z,28.73
2019-02-26T08:09:23.692Z,29.40
2019-02-26T08:11:53.252Z,29.47
2019-02-26T08:14:23.298Z,27.97
2019-02-26T08:16:56.130Z,31.03
2019-02-26T08:19:29.633Z,30.10
2019-02-26T08:21:57.188Z,31.50
2019-02-26T08:24:26.562Z,30.30
2019-02-26T08:26:56.865Z,30.27
2019-02-26T08:29:27.302Z,30.60
2019-02-26T08:31:59.231Z,31.97
2019-02-26T08:34:28.364Z,33.03
2019-02-26T08:36:58.816Z,30.33
2019-02-26T08:39:28.246Z,32.00
2019-02-26T08:42:06.782Z,33.20
2019-02-26T08:44:36.252Z,32.83
2019-02-26T08:47:08.808Z,33.27
2019-02-26T08:49:40.111Z,32.20
2019-02-26T08:52:09.889Z,31.03
2019-02-26T08:54:39.227Z,31.50
2019-02-26T08:57:08.645Z,31.77
2019-02-26T08:59:38.042Z,32.37
2019-02-26T09:02:07.445Z,31.93
2019-02-26T09:04:38.339Z,32.20
2019-02-26T09:07:07.972Z,33.03
2019-02-26T09:09:37.417Z,32.53
2019-02-26T09:12:06.787Z,32.63
2019-02-26T09:14:37.632Z,34.23
2019-02-26T09:17:07.237Z,35.03
2019-02-26T09:19:38.081Z,36.47
2019-02-26T09:22:09.682Z,37.63
2019-02-26T09:24:38.748Z,38.70
2019-02-26T09:27:08.165Z,37.53
2019-02-26T09:29:39.287Z,37.43
2019-02-26T09:32:14.401Z,38.33
2019-02-26T09:34:44.126Z,37.60
2019-02-26T09:37:13.491Z,38.53
2019-02-26T09:39:42.886Z,37.83
2019-02-26T09:42:14.368Z,38.60
2019-02-26T09:44:43.725Z,39.10
2019-02-26T09:47:13.081Z,37.40
2019-02-26T09:49:42.450Z,37.97
2019-02-26T09:52:11.793Z,38.57
2019-02-26T09:54:45.763Z,39.53
2019-02-26T09:57:17.583Z,39.17
2019-02-26T09:59:47.222Z,38.50
2019-02-26T10:02:17.273Z,37.47
2019-02-26T10:04:54.457Z,38.97
2019-02-26T10:07:26.049Z,36.50
2019-02-26T10:09:55.125Z,37.00
2019-02-26T10:12:24.566Z,38.00
2019-02-26T10:15:02.025Z,37.17
2019-02-26T10:17:30.129Z,38.60
2019-02-26T10:20:11.700Z,37.87
2019-02-26T10:22:41.137Z,38.43
2019-02-26T10:25:12.302Z,37.37
2019-02-26T10:27:45.363Z,36.17
2019-02-26T10:30:16.396Z,36.13
2019-02-26T10:32:47.089Z,36.07
2019-02-26T10:35:22.579Z,37.20
2019-02-26T10:38:05.121Z,35.40
2019-02-26T10:40:35.504Z,37.73
2019-02-26T10:43:06.425Z,35.83
2019-02-26T10:45:54.399Z,34.27
2019-02-26T10:48:25.109Z,35.10
2019-02-26T10:50:54.275Z,37.03
2019-02-26T10:53:23.652Z,35.40
2019-02-26T10:55:53.057Z,33.63
2019-02-26T10:58:22.428Z,34.97
2019-02-26T11:00:55.702Z,34.87
2019-02-26T11:03:24.977Z,32.13
2019-02-26T11:05:55.379Z,33.30
2019-02-26T11:08:28.967Z,33.63
2019-02-26T11:11:04.505Z,32.87
2019-02-26T11:13:53.838Z,33.73
2019-02-26T11:16:25.358Z,33.37
2019-02-26T11:18:55.014Z,32.40
2019-02-26T11:21:24.400Z,31.90
2019-02-26T11:23:53.720Z,30.90
2019-02-26T11:26:23.035Z,31.20
2019-02-26T11:28:52.355Z,30.77
2019-02-26T11:31:25.349Z,31.27
2019-02-26T11:33:56.358Z,31.43
2019-02-26T11:36:25.131Z,30.43
2019-02-26T11:38:54.535Z,32.37
2019-02-26T11:41:26.455Z,30.97
2019-02-26T11:43:55.851Z,30.73
2019-02-26T11:46:27.126Z,29.83
2019-02-26T11:48:57.671Z,29.80
2019-02-26T11:51:36.626Z,31.97
2019-02-26T11:54:00.031Z,30.73
2019-02-26T11:56:29.958Z,30.70
2019-02-26T11:58:59.266Z,29.80
2019-02-26T12:01:29.370Z,29.53
2019-02-26T12:04:03.525Z,29.43
2019-02-26T12:06:31.698Z,30.90
2019-02-26T12:09:02.658Z,31.17
2019-02-26T12:11:33.622Z,28.67
2019-02-26T12:14:02.935Z,30.27
2019-02-26T12:16:32.338Z,30.27
2019-02-26T12:19:03.533Z,30.37
2019-02-26T12:21:34.494Z,29.83
2019-02-26T12:24:05.964Z,29.80
2019-02-26T12:26:34.730Z,30.37
2019-02-26T12:29:04.423Z,29.17
2019-02-26T12:31:36.352Z,28.60
2019-02-26T12:34:04.970Z,29.37
2019-02-26T12:36:35.530Z,30.13
2019-02-26T12:39:06.662Z,28.23
2019-02-26T12:41:41.194Z,27.67
2019-02-26T12:44:11.428Z,28.50
2019-02-26T12:46:39.575Z,27.30
2019-02-26T12:49:12.050Z,27.60
2019-02-26T12:51:39.934Z,29.43
2019-02-26T12:54:10.121Z,27.57
2019-02-26T12:56:40.309Z,27.30
2019-02-26T12:59:09.618Z,27.27
2019-02-26T13:01:40.841Z,29.00
2019-02-26T13:04:12.964Z,29.33
2019-02-26T13:06:45.356Z,26.33
2019-02-26T13:09:13.221Z,29.03
2019-02-26T13:12:00.204Z,28.47
2019-02-26T13:14:13.535Z,28.87
2019-02-26T13:16:46.112Z,28.60
2019-02-26T13:19:18.377Z,26.77
2019-02-26T13:21:45.240Z,29.07
2019-02-26T13:24:17.743Z,28.10
2019-02-26T13:26:50.269Z,28.60
2019-02-26T13:29:16.708Z,30.30
2019-02-26T13:31:56.058Z,28.00
2019-02-26T13:34:17.046Z,29.00
2019-02-26T13:36:52.233Z,29.10
2019-02-26T13:39:21.834Z,28.80
2019-02-26T13:41:54.412Z,28.53
2019-02-26T13:44:19.727Z,27.97
2019-02-26T13:46:49.042Z,28.07
2019-02-26T13:49:18.346Z,27.90
2019-02-26T13:51:48.726Z,27.93
2019-02-26T13:54:18.054Z,28.97
2019-02-26T13:56:47.610Z,29.23
2019-02-26T13:59:16.926Z,27.37
2019-02-26T14:01:46.495Z,28.07
2019-02-26T14:04:15.895Z,26.73
2019-02-26T14:06:45.274Z,27.97
2019-02-26T14:09:14.667Z,26.77
2019-02-26T14:11:44.094Z,28.33
2019-02-26T14:14:13.408Z,26.43
2019-02-26T14:16:43.088Z,29.47
2019-02-26T14:19:12.403Z,28.67
2019-02-26T14:21:41.742Z,27.83
2019-02-26T14:24:11.122Z,28.33
2019-02-26T14:26:40.426Z,27.77
2019-02-26T14:29:09.918Z,28.03
2019-02-26T14:31:40.179Z,27.90
2019-02-26T14:34:09.495Z,27.17
2019-02-26T14:36:38.806Z,28.17
2019-02-26T14:39:09.720Z,26.97
2019-02-26T14:41:39.103Z,26.47
2019-02-26T14:44:08.403Z,26.80
2019-02-26T14:46:37.744Z,26.33
2019-02-26T14:49:07.111Z,24.77
2019-02-26T14:51:36.698Z,27.17
2019-02-26T14:54:06.531Z,25.90
2019-02-26T14:56:35.987Z,27.77
2019-02-26T14:59:05.311Z,26.23
2019-02-26T15:01:34.616Z,25.23
2019-02-26T15:04:03.926Z,25.07
2019-02-26T15:06:33.242Z,24.70
2019-02-26T15:09:02.623Z,25.63
2019-02-26T15:11:33.574Z,25.73
2019-02-26T15:14:03.057Z,25.57
2019-02-26T15:16:32.360Z,24.70
2019-02-26T15:19:01.659Z,23.90
2019-02-26T15:21:30.968Z,22.60
2019-02-26T15:24:00.271Z,22.23
2019-02-26T15:26:29.583Z,21.67
2019-02-26T15:28:58.943Z,21.43
2019-02-26T15:31:28.244Z,22.50
2019-02-26T15:33:57.598Z,22.87
2019-02-26T15:36:26.891Z,22.57
2019-02-26T15:38:56.203Z,22.10
2019-02-26T15:41:25.531Z,22.27
2019-02-26T15:43:56.493Z,22.10
2019-02-26T15:46:25.831Z,22.37
2019-02-26T15:48:55.418Z,23.70
2019-02-26T15:51:24.729Z,22.27
2019-02-26T15:53:55.551Z,22.70
2019-02-26T15:56:25.059Z,22.67
2019-02-26T15:58:54.389Z,23.77
2019-02-26T16:01:23.683Z,24.73
2019-02-26T16:03:53.017Z,22.23
2019-02-26T16:06:22.336Z,22.63
2019-02-26T16:08:51.702Z,24.07
2019-02-26T16:11:21.010Z,23.03
2019-02-26T16:13:50.310Z,23.07
2019-02-26T16:16:19.620Z,22.07
2019-02-26T16:18:48.962Z,23.67
2019-02-26T16:21:19.336Z,21.87
2019-02-26T16:23:48.799Z,23.37
2019-02-26T16:26:18.124Z,22.53
2019-02-26T16:28:47.510Z,23.43
2019-02-26T16:31:16.908Z,22.40
2019-02-26T16:33:46.743Z,21.00
2019-02-26T16:36:16.821Z,22.40
2019-02-26T16:38:50.611Z,22.70
2019-02-26T16:41:17.146Z,22.53
2019-02-26T16:43:47.284Z,21.67
2019-02-26T16:46:16.750Z,23.17
2019-02-26T16:48:46.339Z,23.13
2019-02-26T16:51:16.645Z,22.77
2019-02-26T16:53:46.731Z,21.77
2019-02-26T16:56:16.030Z,23.17
2019-02-26T16:58:45.342Z,22.50
2019-02-26T17:01:14.641Z,22.37
2019-02-26T17:03:43.946Z,21.57
2019-02-26T17:06:13.544Z,21.23
2019-02-26T17:08:44.687Z,21.33
2019-02-26T17:11:14.015Z,21.17
2019-02-26T17:13:44.157Z,24.00
2019-02-26T17:16:13.587Z,23.80
2019-02-26T17:18:43.410Z,22.10
2019-02-26T17:21:12.790Z,22.03
2019-02-26T17:23:42.136Z,20.33
2019-02-26T17:26:11.426Z,19.87
2019-02-26T17:28:43.564Z,19.20
2019-02-26T17:31:11.758Z,17.90
2019-02-26T17:33:41.086Z,20.70
2019-02-26T17:36:10.407Z,21.20
2019-02-26T17:38:39.709Z,21.07
2019-02-26T17:41:09.922Z,21.73
2019-02-26T17:43:40.002Z,22.27
2019-02-26T17:46:09.840Z,23.73
2019-02-26T17:48:43.426Z,23.80
2019-02-26T17:51:10.806Z,26.13
2019-02-26T17:53:40.106Z,29.77
2019-02-26T17:56:09.434Z,29.83
2019-02-26T17:58:38.731Z,33.70
2019-02-26T18:01:08.036Z,33.63
2019-02-26T18:03:37.360Z,34.80
2019-02-26T18:06:06.662Z,37.63
2019-02-26T18:08:35.967Z,48.37
2019-02-26T18:11:05.297Z,41.70
2019-02-26T18:13:34.624Z,39.87
2019-02-26T18:16:09.094Z,62.60
2019-02-26T18:18:35.027Z,37.57
2019-02-26T18:21:05.946Z,43.77
2019-02-26T18:23:37.493Z,42.00
2019-02-26T18:26:06.403Z,46.23
2019-02-26T18:28:36.795Z,44.17
2019-02-26T18:31:06.293Z,41.10
2019-02-26T18:33:36.235Z,44.20
2019-02-26T18:36:05.667Z,40.67
2019-02-26T18:38:36.341Z,37.17
2019-02-26T18:41:05.666Z,37.70
2019-02-26T18:43:34.982Z,40.10
2019-02-26T18:46:04.345Z,40.77
2019-02-26T18:48:33.789Z,39.50
2019-02-26T18:51:03.176Z,40.27
2019-02-26T18:53:32.492Z,39.93
2019-02-26T18:56:04.269Z,34.03
2019-02-26T18:58:34.271Z,28.37
2019-02-26T19:01:03.611Z,24.83
2019-02-26T19:03:32.922Z,24.70
2019-02-26T19:06:03.623Z,24.40
2019-02-26T19:08:34.639Z,22.93
2019-02-26T19:11:04.246Z,26.93
2019-02-26T19:13:35.573Z,25.53
2019-02-26T19:16:04.817Z,27.60
2019-02-26T19:18:35.679Z,31.90
2019-02-26T19:21:05.130Z,32.13
2019-02-26T19:23:34.495Z,28.03
2019-02-26T19:26:03.790Z,27.43
2019-02-26T19:28:33.103Z,25.17
2019-02-26T19:31:02.423Z,24.50
2019-02-26T19:33:31.756Z,23.67
2019-02-26T19:36:01.042Z,24.50
2019-02-26T19:38:30.351Z,25.83
2019-02-26T19:41:05.652Z,28.07
2019-02-26T19:43:34.955Z,28.80
2019-02-26T19:46:04.251Z,31.93
2019-02-26T19:48:34.059Z,31.60
2019-02-26T19:51:03.439Z,29.23
2019-02-26T19:53:34.730Z,30.03
2019-02-26T19:56:03.939Z,27.20
2019-02-26T19:58:33.243Z,25.83
2019-02-26T20:01:02.565Z,26.07
2019-02-26T20:03:39.514Z,26.57
2019-02-26T20:06:02.957Z,27.90
2019-02-26T20:08:32.291Z,28.13
2019-02-26T20:11:01.684Z,26.50
2019-02-26T20:13:31.690Z,27.87
2019-02-26T20:16:02.010Z,27.03
2019-02-26T20:18:31.322Z,25.80
2019-02-26T20:21:00.618Z,26.33
2019-02-26T20:23:29.966Z,26.90
2019-02-26T20:25:59.252Z,27.67
2019-02-26T20:28:28.555Z,27.10
2019-02-26T20:30:57.846Z,29.80
2019-02-26T20:33:27.147Z,28.57
2019-02-26T20:35:56.519Z,28.00
2019-02-26T20:38:25.892Z,28.17
2019-02-26T20:40:55.194Z,29.77
2019-02-26T20:43:25.454Z,29.17
2019-02-26T20:45:54.771Z,30.17
2019-02-26T20:48:24.087Z,29.63
2019-02-26T20:50:54.273Z,28.43
2019-02-26T20:53:24.394Z,29.10
2019-02-26T20:55:57.427Z,28.87
2019-02-26T20:58:24.712Z,27.40
2019-02-26T21:00:54.014Z,27.87
2019-02-26T21:03:23.426Z,28.23
2019-02-26T21:05:52.743Z,28.03
2019-02-26T21:08:22.122Z,28.17
2019-02-26T21:10:51.503Z,29.07
2019-02-26T21:13:20.812Z,27.20
2019-02-26T21:15:50.134Z,27.67
2019-02-26T21:18:19.441Z,27.90
2019-02-26T21:20:49.330Z,28.90
2019-02-26T21:23:19.902Z,27.50
2019-02-26T21:25:49.236Z,26.23
2019-02-26T21:28:18.524Z,26.83
2019-02-26T21:30:47.842Z,25.33
2019-02-26T21:33:17.159Z,24.37
2019-02-26T21:35:46.462Z,24.93
2019-02-26T21:38:15.758Z,24.27
2019-02-26T21:40:48.677Z,25.53
2019-02-26T21:43:16.073Z,27.33
2019-02-26T21:45:49.156Z,24.17
2019-02-26T21:48:16.387Z,21.70
2019-02-26T21:50:45.706Z,21.70
2019-02-26T21:53:15.880Z,22.70
2019-02-26T21:55:45.790Z,21.10
2019-02-26T21:58:16.084Z,23.03
2019-02-26T22:00:45.418Z,20.00
2019-02-26T22:03:14.710Z,20.33
2019-02-26T22:05:44.095Z,22.17
2019-02-26T22:08:13.402Z,22.27
2019-02-26T22:10:42.866Z,22.37
2019-02-26T22:13:12.778Z,21.37
2019-02-26T22:15:44.537Z,21.40
2019-02-26T22:18:13.079Z,24.73
2019-02-26T22:20:42.376Z,22.93
2019-02-26T22:23:11.687Z,23.43
2019-02-26T22:25:40.995Z,29.00
2019-02-26T22:28:10.286Z,25.27
2019-02-26T22:30:39.599Z,22.53
2019-02-26T22:33:08.914Z,21.50
2019-02-26T22:35:38.214Z,20.80
2019-02-26T22:38:07.519Z,19.03
2019-02-26T22:40:36.825Z,19.27
2019-02-26T22:43:06.134Z,21.20
2019-02-26T22:45:36.500Z,20.17
2019-02-26T22:48:05.834Z,21.60
2019-02-26T22:50:35.144Z,22.87
2019-02-26T22:53:04.619Z,21.43
2019-02-26T22:55:35.010Z,27.37
2019-02-26T22:58:04.326Z,23.70
2019-02-26T23:00:56.820Z,22.80
2019-02-26T23:03:27.766Z,22.40
2019-02-26T23:05:59.014Z,23.13
2019-02-26T23:08:29.360Z,24.77
2019-02-26T23:10:58.846Z,25.43
2019-02-26T23:13:31.515Z,25.87
2019-02-26T23:15:59.513Z,24.30
2019-02-26T23:18:30.968Z,25.40
2019-02-26T23:21:01.159Z,24.37
2019-02-26T23:23:44.389Z,23.33
2019-02-26T23:26:13.746Z,23.87
2019-02-26T23:28:44.099Z,23.40
2019-02-26T23:31:13.767Z,22.60
2019-02-26T23:33:43.132Z,21.73
2019-02-26T23:36:12.451Z,22.03
2019-02-26T23:38:44.049Z,24.43
2019-02-26T23:41:12.763Z,24.70
2019-02-26T23:43:42.928Z,23.37
2019-02-26T23:46:13.070Z,25.77
2019-02-26T23:48:42.388Z,23.10
2019-02-26T23:51:11.679Z,22.80
2019-02-26T23:53:40.988Z,21.73
2019-02-26T23:56:10.322Z,24.03
2019-02-26T23:58:39.627Z,24.63
